sensor_id;sensor_type;location;lat;lon;timestamp;P1;durP1;ratioP1;P2;durP2;ratioP2
33579;SDS011;19909;43.644;-79.438;2023-06-26T00:01:55;2.83;;;2.63;;
33579;SDS011;19909;43.644;-79.438;2023-06-26T00:04:21;3.72;;;2.65;;
33579;SDS011;19909;43.644;-79.438;2023-06-26T00:06:47;2.78;;;2.58;;
33579;SDS011;19909;43.644;-79.438;2023-06-26T00:09:13;3.22;;;3.00;;
33579;SDS011;19909;43.644;-79.438;2023-06-26T00:11:39;3.42;;;3.13;;
33579;SDS011;19909;43.644;-79.438;2023-06-26T00:14:05;2.88;;;2.67;;
33579;SDS011;19909;43.644;-79.438;2023-06-26T00:16:32;2.90;;;2.70;;
33579;SDS011;19909;43.644;-79.438;2023-06-26T00:18:58;3.15;;;2.95;;
33579;SDS011;19909;43.644;-79.438;2023-06-26T00:21:24;2.90;;;2.70;;
33579;SDS011;19909;43.644;-79.438;2023-06-26T00:23:51;2.95;;;2.75;;
33579;SDS011;19909;43.644;-79.438;2023-06-26T00:26:17;2.90;;;2.70;;
33579;SDS011;19909;43.644;-79.438;2023-06-26T00:28:43;3.20;;;2.90;;
33579;SDS011;19909;43.644;-79.438;2023-06-26T00:31:09;3.15;;;2.90;;
33579;SDS011;19909;43.644;-79.438;2023-06-26T00:33:35;3.45;;;3.15;;
33579;SDS011;19909;43.644;-79.438;2023-06-26T00:36:01;3.00;;;2.80;;
33579;SDS011;19909;43.644;-79.438;2023-06-26T00:38:27;3.25;;;2.95;;
33579;SDS011;19909;43.644;-79.438;2023-06-26T00:40:54;2.97;;;2.78;;
33579;SDS011;19909;43.644;-79.438;2023-06-26T00:43:21;3.80;;;3.50;;
33579;SDS011;19909;43.644;-79.438;2023-06-26T00:45:47;3.17;;;2.90;;
33579;SDS011;19909;43.644;-79.438;2023-06-26T00:48:13;2.92;;;2.72;;
33579;SDS011;19909;43.644;-79.438;2023-06-26T00:50:40;3.42;;;3.13;;
33579;SDS011;19909;43.644;-79.438;2023-06-26T00:53:09;3.17;;;2.80;;
33579;SDS011;19909;43.644;-79.438;2023-06-26T00:55:36;3.15;;;2.85;;
33579;SDS011;19909;43.644;-79.438;2023-06-26T00:58:02;3.10;;;2.90;;
33579;SDS011;19909;43.644;-79.438;2023-06-26T01:00:28;3.15;;;2.85;;
33579;SDS011;19909;43.644;-79.438;2023-06-26T01:02:55;3.20;;;2.90;;
33579;SDS011;19909;43.644;-79.438;2023-06-26T01:05:24;2.58;;;2.38;;
33579;SDS011;19909;43.644;-79.438;2023-06-26T01:07:52;3.25;;;2.95;;
33579;SDS011;19909;43.644;-79.438;2023-06-26T01:10:19;2.70;;;2.50;;
33579;SDS011;19909;43.644;-79.438;2023-06-26T01:12:45;2.72;;;2.50;;
33579;SDS011;19909;43.644;-79.438;2023-06-26T01:15:11;3.53;;;2.75;;
33579;SDS011;19909;43.644;-79.438;2023-06-26T01:17:37;2.85;;;2.65;;
33579;SDS011;19909;43.644;-79.438;2023-06-26T01:20:05;3.35;;;2.80;;
33579;SDS011;19909;43.644;-79.438;2023-06-26T01:25:37;2.70;;;2.50;;
33579;SDS011;19909;43.644;-79.438;2023-06-26T01:28:19;3.05;;;2.85;;
33579;SDS011;19909;43.644;-79.438;2023-06-26T01:30:47;2.85;;;2.65;;
33579;SDS011;19909;43.644;-79.438;2023-06-26T01:33:14;2.88;;;2.67;;
33579;SDS011;19909;43.644;-79.438;2023-06-26T01:35:41;2.50;;;2.30;;
33579;SDS011;19909;43.644;-79.438;2023-06-26T01:40:41;3.45;;;3.15;;
33579;SDS011;19909;43.644;-79.438;2023-06-26T01:43:10;3.05;;;2.72;;
33579;SDS011;19909;43.644;-79.438;2023-06-26T01:45:43;3.13;;;2.83;;
33579;SDS011;19909;43.644;-79.438;2023-06-26T01:48:13;2.45;;;2.25;;
33579;SDS011;19909;43.644;-79.438;2023-06-26T01:50:46;2.70;;;2.50;;
33579;SDS011;19909;43.644;-79.438;2023-06-26T01:53:17;3.08;;;2.88;;
33579;SDS011;19909;43.644;-79.438;2023-06-26T01:55:59;2.90;;;2.70;;
33579;SDS011;19909;43.644;-79.438;2023-06-26T01:58:31;3.33;;;2.80;;
33579;SDS011;19909;43.644;-79.438;2023-06-26T02:00:59;3.10;;;2.70;;
33579;SDS011;19909;43.644;-79.438;2023-06-26T02:03:25;3.10;;;2.90;;
33579;SDS011;19909;43.644;-79.438;2023-06-26T02:05:52;3.33;;;3.08;;
33579;SDS011;19909;43.644;-79.438;2023-06-26T02:08:18;2.95;;;2.70;;
33579;SDS011;19909;43.644;-79.438;2023-06-26T02:10:44;2.67;;;2.47;;
33579;SDS011;19909;43.644;-79.438;2023-06-26T02:13:10;3.88;;;3.22;;
33579;SDS011;19909;43.644;-79.438;2023-06-26T02:15:36;2.88;;;2.67;;
33579;SDS011;19909;43.644;-79.438;2023-06-26T02:18:02;3.03;;;2.83;;
33579;SDS011;19909;43.644;-79.438;2023-06-26T02:20:28;3.05;;;2.80;;
33579;SDS011;19909;43.644;-79.438;2023-06-26T02:22:54;3.40;;;3.10;;
33579;SDS011;19909;43.644;-79.438;2023-06-26T02:25:20;2.65;;;2.45;;
33579;SDS011;19909;43.644;-79.438;2023-06-26T02:27:47;3.08;;;2.88;;
33579;SDS011;19909;43.644;-79.438;2023-06-26T02:30:13;3.00;;;2.80;;
33579;SDS011;19909;43.644;-79.438;2023-06-26T02:32:39;2.97;;;2.78;;
33579;SDS011;19909;43.644;-79.438;2023-06-26T02:35:05;3.17;;;2.95;;
33579;SDS011;19909;43.644;-79.438;2023-06-26T02:37:32;3.42;;;3.13;;
33579;SDS011;19909;43.644;-79.438;2023-06-26T02:39:58;2.78;;;2.58;;
33579;SDS011;19909;43.644;-79.438;2023-06-26T02:42:24;3.70;;;3.40;;
33579;SDS011;19909;43.644;-79.438;2023-06-26T02:44:50;3.20;;;2.90;;
33579;SDS011;19909;43.644;-79.438;2023-06-26T02:47:17;3.70;;;3.40;;
33579;SDS011;19909;43.644;-79.438;2023-06-26T02:49:43;3.38;;;3.08;;
33579;SDS011;19909;43.644;-79.438;2023-06-26T02:52:09;3.42;;;2.75;;
33579;SDS011;19909;43.644;-79.438;2023-06-26T02:54:35;3.40;;;3.10;;
33579;SDS011;19909;43.644;-79.438;2023-06-26T02:57:01;3.22;;;2.92;;
33579;SDS011;19909;43.644;-79.438;2023-06-26T02:59:28;3.08;;;2.88;;
33579;SDS011;19909;43.644;-79.438;2023-06-26T03:01:54;3.58;;;3.28;;
33579;SDS011;19909;43.644;-79.438;2023-06-26T03:04:20;3.08;;;2.88;;
33579;SDS011;19909;43.644;-79.438;2023-06-26T03:06:46;3.65;;;3.35;;
33579;SDS011;19909;43.644;-79.438;2023-06-26T03:09:13;3.70;;;3.40;;
33579;SDS011;19909;43.644;-79.438;2023-06-26T03:11:39;4.10;;;3.67;;
33579;SDS011;19909;43.644;-79.438;2023-06-26T03:14:05;4.22;;;3.83;;
33579;SDS011;19909;43.644;-79.438;2023-06-26T03:16:31;3.60;;;3.30;;
33579;SDS011;19909;43.644;-79.438;2023-06-26T03:18:57;3.58;;;3.28;;
33579;SDS011;19909;43.644;-79.438;2023-06-26T03:21:23;4.53;;;3.35;;
33579;SDS011;19909;43.644;-79.438;2023-06-26T03:23:50;4.00;;;3.55;;
33579;SDS011;19909;43.644;-79.438;2023-06-26T03:26:16;3.60;;;3.30;;
33579;SDS011;19909;43.644;-79.438;2023-06-26T03:28:42;4.38;;;3.65;;
33579;SDS011;19909;43.644;-79.438;2023-06-26T03:31:08;3.95;;;3.65;;
33579;SDS011;19909;43.644;-79.438;2023-06-26T03:33:34;3.85;;;3.55;;
33579;SDS011;19909;43.644;-79.438;2023-06-26T03:36:00;3.80;;;3.50;;
33579;SDS011;19909;43.644;-79.438;2023-06-26T03:38:26;3.72;;;3.42;;
33579;SDS011;19909;43.644;-79.438;2023-06-26T03:40:52;3.88;;;3.50;;
33579;SDS011;19909;43.644;-79.438;2023-06-26T03:43:18;4.72;;;4.20;;
33579;SDS011;19909;43.644;-79.438;2023-06-26T03:45:44;4.13;;;3.78;;
33579;SDS011;19909;43.644;-79.438;2023-06-26T03:48:11;3.70;;;3.40;;
33579;SDS011;19909;43.644;-79.438;2023-06-26T03:50:37;3.70;;;3.40;;
33579;SDS011;19909;43.644;-79.438;2023-06-26T03:53:03;4.00;;;3.70;;
33579;SDS011;19909;43.644;-79.438;2023-06-26T03:55:29;3.95;;;3.65;;
33579;SDS011;19909;43.644;-79.438;2023-06-26T03:57:56;4.05;;;3.63;;
33579;SDS011;19909;43.644;-79.438;2023-06-26T04:00:22;4.20;;;3.80;;
33579;SDS011;19909;43.644;-79.438;2023-06-26T04:02:48;3.80;;;3.50;;
33579;SDS011;19909;43.644;-79.438;2023-06-26T04:05:16;4.55;;;3.60;;
33579;SDS011;19909;43.644;-79.438;2023-06-26T04:07:42;3.63;;;3.33;;
33579;SDS011;19909;43.644;-79.438;2023-06-26T04:10:08;4.15;;;3.47;;
33579;SDS011;19909;43.644;-79.438;2023-06-26T04:12:35;3.55;;;3.10;;
33579;SDS011;19909;43.644;-79.438;2023-06-26T04:15:01;3.63;;;3.33;;
33579;SDS011;19909;43.644;-79.438;2023-06-26T04:17:27;3.50;;;3.20;;
33579;SDS011;19909;43.644;-79.438;2023-06-26T04:19:54;3.85;;;3.55;;
33579;SDS011;19909;43.644;-79.438;2023-06-26T04:22:20;3.83;;;3.42;;
33579;SDS011;19909;43.644;-79.438;2023-06-26T04:24:46;3.38;;;3.08;;
33579;SDS011;19909;43.644;-79.438;2023-06-26T04:27:12;3.90;;;3.60;;
33579;SDS011;19909;43.644;-79.438;2023-06-26T04:29:42;3.50;;;3.20;;
33579;SDS011;19909;43.644;-79.438;2023-06-26T04:32:08;3.58;;;3.28;;
33579;SDS011;19909;43.644;-79.438;2023-06-26T04:34:34;3.72;;;3.38;;
33579;SDS011;19909;43.644;-79.438;2023-06-26T04:37:01;3.38;;;3.08;;
33579;SDS011;19909;43.644;-79.438;2023-06-26T04:39:29;3.80;;;3.50;;
33579;SDS011;19909;43.644;-79.438;2023-06-26T04:41:56;3.92;;;3.35;;
33579;SDS011;19909;43.644;-79.438;2023-06-26T04:44:22;3.35;;;3.05;;
33579;SDS011;19909;43.644;-79.438;2023-06-26T04:46:48;3.28;;;2.97;;
33579;SDS011;19909;43.644;-79.438;2023-06-26T04:49:17;3.65;;;3.35;;
33579;SDS011;19909;43.644;-79.438;2023-06-26T04:51:43;3.28;;;2.97;;
33579;SDS011;19909;43.644;-79.438;2023-06-26T04:54:10;3.28;;;3.00;;
33579;SDS011;19909;43.644;-79.438;2023-06-26T04:56:36;3.58;;;3.28;;
33579;SDS011;19909;43.644;-79.438;2023-06-26T04:59:05;3.70;;;3.40;;
33579;SDS011;19909;43.644;-79.438;2023-06-26T05:01:31;3.30;;;3.00;;
33579;SDS011;19909;43.644;-79.438;2023-06-26T05:04:00;3.38;;;3.08;;
33579;SDS011;19909;43.644;-79.438;2023-06-26T05:06:27;4.10;;;3.17;;
33579;SDS011;19909;43.644;-79.438;2023-06-26T05:08:53;3.65;;;3.17;;
33579;SDS011;19909;43.644;-79.438;2023-06-26T05:11:19;3.63;;;3.28;;
33579;SDS011;19909;43.644;-79.438;2023-06-26T05:13:46;4.15;;;3.50;;
33579;SDS011;19909;43.644;-79.438;2023-06-26T05:16:12;3.53;;;3.22;;
33579;SDS011;19909;43.644;-79.438;2023-06-26T05:18:38;3.38;;;3.13;;
33579;SDS011;19909;43.644;-79.438;2023-06-26T05:21:04;2.88;;;2.67;;
33579;SDS011;19909;43.644;-79.438;2023-06-26T05:23:31;3.15;;;2.90;;
33579;SDS011;19909;43.644;-79.438;2023-06-26T05:25:59;3.90;;;3.60;;
33579;SDS011;19909;43.644;-79.438;2023-06-26T05:28:28;3.05;;;2.85;;
33579;SDS011;19909;43.644;-79.438;2023-06-26T05:30:58;3.80;;;3.50;;
33579;SDS011;19909;43.644;-79.438;2023-06-26T05:33:25;4.43;;;2.80;;
33579;SDS011;19909;43.644;-79.438;2023-06-26T05:35:52;3.47;;;2.95;;
33579;SDS011;19909;43.644;-79.438;2023-06-26T05:38:19;3.03;;;2.72;;
33579;SDS011;19909;43.644;-79.438;2023-06-26T05:40:46;3.28;;;2.97;;
33579;SDS011;19909;43.644;-79.438;2023-06-26T05:43:13;3.00;;;2.75;;
33579;SDS011;19909;43.644;-79.438;2023-06-26T05:45:39;3.35;;;2.75;;
33579;SDS011;19909;43.644;-79.438;2023-06-26T05:48:06;3.10;;;2.80;;
33579;SDS011;19909;43.644;-79.438;2023-06-26T05:50:32;3.47;;;3.05;;
33579;SDS011;19909;43.644;-79.438;2023-06-26T05:52:59;3.08;;;2.78;;
33579;SDS011;19909;43.644;-79.438;2023-06-26T05:55:28;3.40;;;3.10;;
33579;SDS011;19909;43.644;-79.438;2023-06-26T05:57:54;3.08;;;2.80;;
33579;SDS011;19909;43.644;-79.438;2023-06-26T06:00:25;2.55;;;2.35;;
33579;SDS011;19909;43.644;-79.438;2023-06-26T06:02:52;3.03;;;2.83;;
33579;SDS011;19909;43.644;-79.438;2023-06-26T06:05:20;2.95;;;2.67;;
33579;SDS011;19909;43.644;-79.438;2023-06-26T06:07:47;2.58;;;2.38;;
33579;SDS011;19909;43.644;-79.438;2023-06-26T06:10:16;2.70;;;2.50;;
33579;SDS011;19909;43.644;-79.438;2023-06-26T06:12:42;2.72;;;2.50;;
33579;SDS011;19909;43.644;-79.438;2023-06-26T06:15:08;3.83;;;2.67;;
33579;SDS011;19909;43.644;-79.438;2023-06-26T06:17:34;2.50;;;2.30;;
33579;SDS011;19909;43.644;-79.438;2023-06-26T06:20:00;2.63;;;2.40;;
33579;SDS011;19909;43.644;-79.438;2023-06-26T06:22:27;2.67;;;2.47;;
33579;SDS011;19909;43.644;-79.438;2023-06-26T06:24:53;2.58;;;2.38;;
33579;SDS011;19909;43.644;-79.438;2023-06-26T06:27:19;2.38;;;2.17;;
33579;SDS011;19909;43.644;-79.438;2023-06-26T06:29:45;2.50;;;2.30;;
33579;SDS011;19909;43.644;-79.438;2023-06-26T06:32:11;2.78;;;2.25;;
33579;SDS011;19909;43.644;-79.438;2023-06-26T06:34:37;3.33;;;2.53;;
33579;SDS011;19909;43.644;-79.438;2023-06-26T06:37:04;1.80;;;1.65;;
33579;SDS011;19909;43.644;-79.438;2023-06-26T06:39:30;2.30;;;2.10;;
33579;SDS011;19909;43.644;-79.438;2023-06-26T06:41:56;2.65;;;2.35;;
33579;SDS011;19909;43.644;-79.438;2023-06-26T06:44:22;1.90;;;1.80;;
33579;SDS011;19909;43.644;-79.438;2023-06-26T06:46:48;2.50;;;2.30;;
33579;SDS011;19909;43.644;-79.438;2023-06-26T06:49:14;2.58;;;2.17;;
33579;SDS011;19909;43.644;-79.438;2023-06-26T06:51:40;2.33;;;2.13;;
33579;SDS011;19909;43.644;-79.438;2023-06-26T06:54:06;2.20;;;1.95;;
33579;SDS011;19909;43.644;-79.438;2023-06-26T06:56:32;2.35;;;1.98;;
33579;SDS011;19909;43.644;-79.438;2023-06-26T06:58:58;2.67;;;2.00;;
33579;SDS011;19909;43.644;-79.438;2023-06-26T07:01:25;2.22;;;1.85;;
33579;SDS011;19909;43.644;-79.438;2023-06-26T07:03:51;2.30;;;2.10;;
33579;SDS011;19909;43.644;-79.438;2023-06-26T07:06:17;1.95;;;1.80;;
33579;SDS011;19909;43.644;-79.438;2023-06-26T07:08:43;2.42;;;1.80;;
33579;SDS011;19909;43.644;-79.438;2023-06-26T07:11:09;2.45;;;2.10;;
33579;SDS011;19909;43.644;-79.438;2023-06-26T07:13:35;2.00;;;1.70;;
33579;SDS011;19909;43.644;-79.438;2023-06-26T07:16:02;2.15;;;1.92;;
33579;SDS011;19909;43.644;-79.438;2023-06-26T07:18:29;2.03;;;1.77;;
33579;SDS011;19909;43.644;-79.438;2023-06-26T07:20:56;1.55;;;1.40;;
33579;SDS011;19909;43.644;-79.438;2023-06-26T07:23:22;1.92;;;1.80;;
33579;SDS011;19909;43.644;-79.438;2023-06-26T07:25:48;1.83;;;1.60;;
33579;SDS011;19909;43.644;-79.438;2023-06-26T07:28:14;1.85;;;1.50;;
33579;SDS011;19909;43.644;-79.438;2023-06-26T07:30:40;2.10;;;1.90;;
33579;SDS011;19909;43.644;-79.438;2023-06-26T07:33:06;1.73;;;1.40;;
33579;SDS011;19909;43.644;-79.438;2023-06-26T07:35:33;1.60;;;1.50;;
33579;SDS011;19909;43.644;-79.438;2023-06-26T07:37:59;2.55;;;1.90;;
33579;SDS011;19909;43.644;-79.438;2023-06-26T07:40:25;1.95;;;1.75;;
33579;SDS011;19909;43.644;-79.438;2023-06-26T07:42:52;2.25;;;1.75;;
33579;SDS011;19909;43.644;-79.438;2023-06-26T07:45:19;1.95;;;1.70;;
33579;SDS011;19909;43.644;-79.438;2023-06-26T07:47:45;2.15;;;1.52;;
33579;SDS011;19909;43.644;-79.438;2023-06-26T07:50:11;1.85;;;1.58;;
33579;SDS011;19909;43.644;-79.438;2023-06-26T07:52:40;1.73;;;1.63;;
33579;SDS011;19909;43.644;-79.438;2023-06-26T07:55:07;1.55;;;1.45;;
33579;SDS011;19909;43.644;-79.438;2023-06-26T07:57:33;1.92;;;1.80;;
33579;SDS011;19909;43.644;-79.438;2023-06-26T07:59:59;2.10;;;1.90;;
33579;SDS011;19909;43.644;-79.438;2023-06-26T08:02:25;1.35;;;1.25;;
33579;SDS011;19909;43.644;-79.438;2023-06-26T08:04:51;1.90;;;1.58;;
33579;SDS011;19909;43.644;-79.438;2023-06-26T08:07:17;2.17;;;1.70;;
33579;SDS011;19909;43.644;-79.438;2023-06-26T08:09:44;1.85;;;1.58;;
33579;SDS011;19909;43.644;-79.438;2023-06-26T08:12:10;1.90;;;1.70;;
33579;SDS011;19909;43.644;-79.438;2023-06-26T08:14:36;1.70;;;1.60;;
33579;SDS011;19909;43.644;-79.438;2023-06-26T08:17:02;1.95;;;1.60;;
33579;SDS011;19909;43.644;-79.438;2023-06-26T08:19:28;1.88;;;1.65;;
33579;SDS011;19909;43.644;-79.438;2023-06-26T08:21:54;1.48;;;1.38;;
33579;SDS011;19909;43.644;-79.438;2023-06-26T08:24:20;1.48;;;1.38;;
33579;SDS011;19909;43.644;-79.438;2023-06-26T08:26:47;1.98;;;1.77;;
33579;SDS011;19909;43.644;-79.438;2023-06-26T08:29:14;1.77;;;1.40;;
33579;SDS011;19909;43.644;-79.438;2023-06-26T08:31:40;1.50;;;1.40;;
33579;SDS011;19909;43.644;-79.438;2023-06-26T08:34:07;1.80;;;1.70;;
33579;SDS011;19909;43.644;-79.438;2023-06-26T08:36:34;1.80;;;1.60;;
33579;SDS011;19909;43.644;-79.438;2023-06-26T08:39:00;1.70;;;1.60;;
33579;SDS011;19909;43.644;-79.438;2023-06-26T08:41:26;1.90;;;1.75;;
33579;SDS011;19909;43.644;-79.438;2023-06-26T08:43:52;1.65;;;1.50;;
33579;SDS011;19909;43.644;-79.438;2023-06-26T08:46:19;1.85;;;1.58;;
33579;SDS011;19909;43.644;-79.438;2023-06-26T08:48:48;1.65;;;1.55;;
33579;SDS011;19909;43.644;-79.438;2023-06-26T08:51:19;1.20;;;1.10;;
33579;SDS011;19909;43.644;-79.438;2023-06-26T08:56:19;1.83;;;1.50;;
33579;SDS011;19909;43.644;-79.438;2023-06-26T08:58:47;1.73;;;1.63;;
33579;SDS011;19909;43.644;-79.438;2023-06-26T09:01:14;1.90;;;1.52;;
33579;SDS011;19909;43.644;-79.438;2023-06-26T09:03:42;1.77;;;1.45;;
33579;SDS011;19909;43.644;-79.438;2023-06-26T09:06:09;1.48;;;1.38;;
33579;SDS011;19909;43.644;-79.438;2023-06-26T09:08:35;1.83;;;1.63;;
33579;SDS011;19909;43.644;-79.438;2023-06-26T09:11:02;2.03;;;1.58;;
33579;SDS011;19909;43.644;-79.438;2023-06-26T09:13:30;1.75;;;1.65;;
33579;SDS011;19909;43.644;-79.438;2023-06-26T09:15:57;2.00;;;1.80;;
33579;SDS011;19909;43.644;-79.438;2023-06-26T09:18:23;1.70;;;1.60;;
33579;SDS011;19909;43.644;-79.438;2023-06-26T09:20:50;2.22;;;1.60;;
33579;SDS011;19909;43.644;-79.438;2023-06-26T09:23:16;1.83;;;1.63;;
33579;SDS011;19909;43.644;-79.438;2023-06-26T09:25:42;1.50;;;1.40;;
33579;SDS011;19909;43.644;-79.438;2023-06-26T09:28:10;2.17;;;1.45;;
33579;SDS011;19909;43.644;-79.438;2023-06-26T09:30:37;1.60;;;1.50;;
33579;SDS011;19909;43.644;-79.438;2023-06-26T09:33:15;1.40;;;1.30;;
33579;SDS011;19909;43.644;-79.438;2023-06-26T09:35:43;1.60;;;1.50;;
33579;SDS011;19909;43.644;-79.438;2023-06-26T09:38:10;1.50;;;1.40;;
33579;SDS011;19909;43.644;-79.438;2023-06-26T09:40:37;2.35;;;1.55;;
33579;SDS011;19909;43.644;-79.438;2023-06-26T09:43:04;1.90;;;1.77;;
33579;SDS011;19909;43.644;-79.438;2023-06-26T09:45:31;1.98;;;1.80;;
33579;SDS011;19909;43.644;-79.438;2023-06-26T09:48:04;1.75;;;1.65;;
33579;SDS011;19909;43.644;-79.438;2023-06-26T09:50:32;1.60;;;1.40;;
33579;SDS011;19909;43.644;-79.438;2023-06-26T09:53:09;1.27;;;1.15;;
33579;SDS011;19909;43.644;-79.438;2023-06-26T09:55:36;1.33;;;1.23;;
33579;SDS011;19909;43.644;-79.438;2023-06-26T09:58:03;1.50;;;1.33;;
33579;SDS011;19909;43.644;-79.438;2023-06-26T10:00:30;2.00;;;1.80;;
33579;SDS011;19909;43.644;-79.438;2023-06-26T10:02:57;1.65;;;1.55;;
33579;SDS011;19909;43.644;-79.438;2023-06-26T10:05:26;2.08;;;1.50;;
33579;SDS011;19909;43.644;-79.438;2023-06-26T10:07:53;1.70;;;1.52;;
33579;SDS011;19909;43.644;-79.438;2023-06-26T10:10:21;1.58;;;1.48;;
33579;SDS011;19909;43.644;-79.438;2023-06-26T10:12:50;2.03;;;1.80;;
33579;SDS011;19909;43.644;-79.438;2023-06-26T10:15:20;1.80;;;1.70;;
33579;SDS011;19909;43.644;-79.438;2023-06-26T10:17:48;1.70;;;1.50;;
33579;SDS011;19909;43.644;-79.438;2023-06-26T10:20:15;2.17;;;1.75;;
33579;SDS011;19909;43.644;-79.438;2023-06-26T10:22:44;1.58;;;1.48;;
33579;SDS011;19909;43.644;-79.438;2023-06-26T10:25:12;1.50;;;1.40;;
33579;SDS011;19909;43.644;-79.438;2023-06-26T10:27:45;1.70;;;1.60;;
33579;SDS011;19909;43.644;-79.438;2023-06-26T10:30:19;2.05;;;1.85;;
33579;SDS011;19909;43.644;-79.438;2023-06-26T10:32:49;1.33;;;1.23;;
33579;SDS011;19909;43.644;-79.438;2023-06-26T10:35:16;1.30;;;1.20;;
33579;SDS011;19909;43.644;-79.438;2023-06-26T10:40:10;1.83;;;1.70;;
33579;SDS011;19909;43.644;-79.438;2023-06-26T10:42:38;1.60;;;1.50;;
33579;SDS011;19909;43.644;-79.438;2023-06-26T10:47:47;1.75;;;1.63;;
33579;SDS011;19909;43.644;-79.438;2023-06-26T10:53:06;1.42;;;1.33;;
33579;SDS011;19909;43.644;-79.438;2023-06-26T10:55:51;1.30;;;1.20;;
33579;SDS011;19909;43.644;-79.438;2023-06-26T11:01:37;1.52;;;1.42;;
33579;SDS011;19909;43.644;-79.438;2023-06-26T11:06:17;2.20;;;1.70;;
33579;SDS011;19909;43.644;-79.438;2023-06-26T11:11:11;1.52;;;1.42;;
33579;SDS011;19909;43.644;-79.438;2023-06-26T11:13:38;1.45;;;1.35;;
33579;SDS011;19909;43.644;-79.438;2023-06-26T11:16:10;2.80;;;1.67;;
33579;SDS011;19909;43.644;-79.438;2023-06-26T11:18:38;2.88;;;1.75;;
33579;SDS011;19909;43.644;-79.438;2023-06-26T11:21:13;1.27;;;1.17;;
33579;SDS011;19909;43.644;-79.438;2023-06-26T11:23:40;2.00;;;1.40;;
33579;SDS011;19909;43.644;-79.438;2023-06-26T11:26:13;1.65;;;1.55;;
33579;SDS011;19909;43.644;-79.438;2023-06-26T11:28:45;1.40;;;1.30;;
33579;SDS011;19909;43.644;-79.438;2023-06-26T11:31:25;3.55;;;1.15;;
33579;SDS011;19909;43.644;-79.438;2023-06-26T11:33:56;1.50;;;1.40;;
33579;SDS011;19909;43.644;-79.438;2023-06-26T11:36:24;1.50;;;1.27;;
33579;SDS011;19909;43.644;-79.438;2023-06-26T11:41:25;1.45;;;1.20;;
33579;SDS011;19909;43.644;-79.438;2023-06-26T11:43:52;1.80;;;1.70;;
33579;SDS011;19909;43.644;-79.438;2023-06-26T11:46:19;1.38;;;1.27;;
33579;SDS011;19909;43.644;-79.438;2023-06-26T11:48:47;1.50;;;1.40;;
33579;SDS011;19909;43.644;-79.438;2023-06-26T11:51:14;1.65;;;1.55;;
33579;SDS011;19909;43.644;-79.438;2023-06-26T11:53:45;1.67;;;1.58;;
33579;SDS011;19909;43.644;-79.438;2023-06-26T11:56:13;1.90;;;1.60;;
33579;SDS011;19909;43.644;-79.438;2023-06-26T12:01:14;24.42;;;3.05;;
33579;SDS011;19909;43.644;-79.438;2023-06-26T12:03:41;3.45;;;1.40;;
33579;SDS011;19909;43.644;-79.438;2023-06-26T12:06:08;6.75;;;1.52;;
33579;SDS011;19909;43.644;-79.438;2023-06-26T12:08:34;4.85;;;1.77;;
33579;SDS011;19909;43.644;-79.438;2023-06-26T12:11:00;3.13;;;1.73;;
33579;SDS011;19909;43.644;-79.438;2023-06-26T12:13:27;5.40;;;1.48;;
33579;SDS011;19909;43.644;-79.438;2023-06-26T12:15:53;3.50;;;1.60;;
33579;SDS011;19909;43.644;-79.438;2023-06-26T12:18:19;2.65;;;1.50;;
33579;SDS011;19909;43.644;-79.438;2023-06-26T12:20:46;3.65;;;1.70;;
33579;SDS011;19909;43.644;-79.438;2023-06-26T12:23:12;6.00;;;2.38;;
33579;SDS011;19909;43.644;-79.438;2023-06-26T12:25:38;3.25;;;1.65;;
33579;SDS011;19909;43.644;-79.438;2023-06-26T12:28:14;1.88;;;1.63;;
33579;SDS011;19909;43.644;-79.438;2023-06-26T12:30:47;2.63;;;1.50;;
33579;SDS011;19909;43.644;-79.438;2023-06-26T12:33:34;2.00;;;1.80;;
33579;SDS011;19909;43.644;-79.438;2023-06-26T12:36:01;1.60;;;1.20;;
33579;SDS011;19909;43.644;-79.438;2023-06-26T12:38:34;1.30;;;1.20;;
33579;SDS011;19909;43.644;-79.438;2023-06-26T12:41:01;1.70;;;1.60;;
33579;SDS011;19909;43.644;-79.438;2023-06-26T12:43:27;1.60;;;1.42;;
33579;SDS011;19909;43.644;-79.438;2023-06-26T12:45:54;1.92;;;1.40;;
33579;SDS011;19909;43.644;-79.438;2023-06-26T12:48:21;2.67;;;1.52;;
33579;SDS011;19909;43.644;-79.438;2023-06-26T12:51:07;1.52;;;1.40;;
33579;SDS011;19909;43.644;-79.438;2023-06-26T12:53:37;1.40;;;1.30;;
33579;SDS011;19909;43.644;-79.438;2023-06-26T12:56:10;3.30;;;1.63;;
33579;SDS011;19909;43.644;-79.438;2023-06-26T12:58:37;2.80;;;1.50;;
33579;SDS011;19909;43.644;-79.438;2023-06-26T13:01:04;1.73;;;1.50;;
33579;SDS011;19909;43.644;-79.438;2023-06-26T13:03:39;2.10;;;1.50;;
33579;SDS011;19909;43.644;-79.438;2023-06-26T13:06:06;1.88;;;1.50;;
33579;SDS011;19909;43.644;-79.438;2023-06-26T13:08:35;2.05;;;1.65;;
33579;SDS011;19909;43.644;-79.438;2023-06-26T13:11:02;3.05;;;1.88;;
33579;SDS011;19909;43.644;-79.438;2023-06-26T13:13:28;1.90;;;1.55;;
33579;SDS011;19909;43.644;-79.438;2023-06-26T13:15:54;2.17;;;1.52;;
33579;SDS011;19909;43.644;-79.438;2023-06-26T13:18:20;1.90;;;1.30;;
33579;SDS011;19909;43.644;-79.438;2023-06-26T13:20:47;1.90;;;1.52;;
33579;SDS011;19909;43.644;-79.438;2023-06-26T13:23:13;1.38;;;1.27;;
33579;SDS011;19909;43.644;-79.438;2023-06-26T13:25:39;1.48;;;1.38;;
33579;SDS011;19909;43.644;-79.438;2023-06-26T13:28:05;1.70;;;1.42;;
33579;SDS011;19909;43.644;-79.438;2023-06-26T13:30:31;1.50;;;1.40;;
33579;SDS011;19909;43.644;-79.438;2023-06-26T13:32:58;2.40;;;1.80;;
33579;SDS011;19909;43.644;-79.438;2023-06-26T13:35:24;1.80;;;1.40;;
33579;SDS011;19909;43.644;-79.438;2023-06-26T13:37:50;2.67;;;1.42;;
33579;SDS011;19909;43.644;-79.438;2023-06-26T13:40:16;1.48;;;1.38;;
33579;SDS011;19909;43.644;-79.438;2023-06-26T13:42:42;2.03;;;1.83;;
33579;SDS011;19909;43.644;-79.438;2023-06-26T13:45:09;1.60;;;1.50;;
33579;SDS011;19909;43.644;-79.438;2023-06-26T13:47:36;2.05;;;1.73;;
33579;SDS011;19909;43.644;-79.438;2023-06-26T13:50:06;2.22;;;1.98;;
33579;SDS011;19909;43.644;-79.438;2023-06-26T13:52:34;2.20;;;1.95;;
33579;SDS011;19909;43.644;-79.438;2023-06-26T13:55:00;1.92;;;1.80;;
33579;SDS011;19909;43.644;-79.438;2023-06-26T13:57:29;4.28;;;1.95;;
33579;SDS011;19909;43.644;-79.438;2023-06-26T13:59:56;3.40;;;1.90;;
33579;SDS011;19909;43.644;-79.438;2023-06-26T14:02:23;4.20;;;2.20;;
33579;SDS011;19909;43.644;-79.438;2023-06-26T14:04:49;4.63;;;2.42;;
33579;SDS011;19909;43.644;-79.438;2023-06-26T14:07:15;2.30;;;2.10;;
33579;SDS011;19909;43.644;-79.438;2023-06-26T14:09:41;2.70;;;1.92;;
33579;SDS011;19909;43.644;-79.438;2023-06-26T14:12:08;4.25;;;2.22;;
33579;SDS011;19909;43.644;-79.438;2023-06-26T14:14:34;2.15;;;1.95;;
33579;SDS011;19909;43.644;-79.438;2023-06-26T14:17:00;2.30;;;2.10;;
33579;SDS011;19909;43.644;-79.438;2023-06-26T14:19:27;2.80;;;2.10;;
33579;SDS011;19909;43.644;-79.438;2023-06-26T14:21:53;2.28;;;2.08;;
33579;SDS011;19909;43.644;-79.438;2023-06-26T14:24:19;4.03;;;2.30;;
33579;SDS011;19909;43.644;-79.438;2023-06-26T14:26:45;2.50;;;2.30;;
33579;SDS011;19909;43.644;-79.438;2023-06-26T14:29:11;2.65;;;2.45;;
33579;SDS011;19909;43.644;-79.438;2023-06-26T14:31:40;2.53;;;2.33;;
33579;SDS011;19909;43.644;-79.438;2023-06-26T14:34:06;3.05;;;2.75;;
33579;SDS011;19909;43.644;-79.438;2023-06-26T14:36:32;3.75;;;2.83;;
33579;SDS011;19909;43.644;-79.438;2023-06-26T14:38:59;4.53;;;2.75;;
33579;SDS011;19909;43.644;-79.438;2023-06-26T14:41:25;4.28;;;2.75;;
33579;SDS011;19909;43.644;-79.438;2023-06-26T14:43:51;4.90;;;3.10;;
33579;SDS011;19909;43.644;-79.438;2023-06-26T14:46:18;3.25;;;2.60;;
33579;SDS011;19909;43.644;-79.438;2023-06-26T14:48:44;3.03;;;2.72;;
33579;SDS011;19909;43.644;-79.438;2023-06-26T14:51:11;3.38;;;3.05;;